SWR6EJ LSZH-LEPA
Flight info
| Callsign | SWR6EJ |
|---|---|
| Flight time | 1h 31m |
| Altitude | 35000 |
| Route | VEBIT T50 ROTOS Z669 ULMES DCT VADAR DCT GEVEA DCT INCUS DCT BALSI DCT RETNO DCT TUPOX DCT MTG DCT DIVKO DCT VATIR DCT PIVUS DCT BODEQ DCT VERSO L129 LUNIK |
| Aircraft | A321/M-SDE3FGHIRWY/LB1 |
Departure
| Time | 2026-04-26 12:16 |
|---|---|
| Airport | Zürich Airport (LSZH) |
Arrival
| Time | 2026-04-26 13:47 |
|---|---|
| Airport | Palma de Mallorca Airport (LEPA) |
| Time | Latitude | Longitude | Altitude | Speed | Heading |
|---|---|---|---|---|---|
| 2026-04-26 12:04 | 47.45348 | 8.55646 | 1397 ft | 0 kts | 6° |
| 2026-04-26 12:07 | 47.45336 | 8.55644 | 1407 ft | 3 kts | 6° |
| 2026-04-26 12:07 | 47.45321 | 8.55642 | 1401 ft | 3 kts | 6° |
| 2026-04-26 12:08 | 47.45307 | 8.55639 | 1405 ft | 3 kts | 6° |
| 2026-04-26 12:08 | 47.45292 | 8.55636 | 1403 ft | 1 kts | 1° |
| 2026-04-26 12:08 | 47.45275 | 8.55640 | 1404 ft | 3 kts | 333° |
| 2026-04-26 12:08 | 47.45260 | 8.55655 | 1398 ft | 1 kts | 308° |
| 2026-04-26 12:09 | 47.45260 | 8.55656 | 1407 ft | 0 kts | 308° |
| 2026-04-26 12:10 | 47.45269 | 8.55627 | 1406 ft | 6 kts | 289° |
| 2026-04-26 12:10 | 47.45284 | 8.55583 | 1397 ft | 5 kts | 308° |
| 2026-04-26 12:10 | 47.45341 | 8.55532 | 1401 ft | 12 kts | 334° |
| 2026-04-26 12:11 | 47.45422 | 8.55475 | 1406 ft | 15 kts | 334° |
| 2026-04-26 12:11 | 47.45521 | 8.55408 | 1407 ft | 15 kts | 335° |
| 2026-04-26 12:11 | 47.45612 | 8.55346 | 1402 ft | 13 kts | 335° |
| 2026-04-26 12:11 | 47.45667 | 8.55391 | 1399 ft | 10 kts | 78° |
| 2026-04-26 12:12 | 47.45664 | 8.55491 | 1397 ft | 10 kts | 96° |
| 2026-04-26 12:12 | 47.45657 | 8.55592 | 1397 ft | 10 kts | 96° |
| 2026-04-26 12:12 | 47.45646 | 8.55734 | 1405 ft | 19 kts | 96° |
| 2026-04-26 12:12 | 47.45635 | 8.55889 | 1397 ft | 25 kts | 95° |
| 2026-04-26 12:13 | 47.45615 | 8.56215 | 1400 ft | 23 kts | 96° |
| 2026-04-26 12:13 | 47.45596 | 8.56449 | 1399 ft | 22 kts | 96° |
| 2026-04-26 12:13 | 47.45582 | 8.56650 | 1397 ft | 18 kts | 96° |
| 2026-04-26 12:13 | 47.45569 | 8.56819 | 1397 ft | 14 kts | 97° |
| 2026-04-26 12:14 | 47.45562 | 8.56907 | 1397 ft | 7 kts | 96° |
| 2026-04-26 12:14 | 47.45565 | 8.56976 | 1397 ft | 6 kts | 71° |
| 2026-04-26 12:14 | 47.45584 | 8.57008 | 1401 ft | 3 kts | 32° |
| 2026-04-26 12:14 | 47.45633 | 8.57028 | 1400 ft | 12 kts | 10° |
| 2026-04-26 12:15 | 47.45665 | 8.56988 | 1400 ft | 5 kts | 284° |
| 2026-04-26 12:15 | 47.45670 | 8.56924 | 1399 ft | 14 kts | 275° |
| 2026-04-26 12:15 | 47.45706 | 8.56405 | 1408 ft | 87 kts | 276° |
| 2026-04-26 12:15 | 47.45790 | 8.55199 | 1401 ft | 146 kts | 276° |
| 2026-04-26 12:16 | 47.45923 | 8.53525 | 1648 ft | 170 kts | 278° |
| 2026-04-26 12:16 | 47.46048 | 8.51799 | 2367 ft | 170 kts | 278° |
| 2026-04-26 12:16 | 47.46167 | 8.50046 | 3067 ft | 173 kts | 278° |
| 2026-04-26 12:16 | 47.46228 | 8.48213 | 3506 ft | 191 kts | 266° |
| 2026-04-26 12:17 | 47.45630 | 8.46382 | 3716 ft | 213 kts | 224° |
| 2026-04-26 12:17 | 47.44429 | 8.44927 | 3895 ft | 233 kts | 217° |
| 2026-04-26 12:17 | 47.43180 | 8.43231 | 4217 ft | 255 kts | 228° |
| 2026-04-26 12:17 | 47.42014 | 8.41104 | 4637 ft | 275 kts | 233° |
| 2026-04-26 12:18 | 47.40883 | 8.38795 | 5513 ft | 279 kts | 234° |
| 2026-04-26 12:18 | 47.39762 | 8.36452 | 6415 ft | 280 kts | 234° |
| 2026-04-26 12:18 | 47.38657 | 8.34084 | 7233 ft | 282 kts | 236° |
| 2026-04-26 12:18 | 47.37625 | 8.31618 | 8034 ft | 284 kts | 240° |
| 2026-04-26 12:19 | 47.36710 | 8.29029 | 8808 ft | 286 kts | 243° |
| 2026-04-26 12:19 | 47.35842 | 8.26381 | 9523 ft | 288 kts | 244° |
| 2026-04-26 12:19 | 47.34972 | 8.23709 | 10217 ft | 291 kts | 244° |
| 2026-04-26 12:19 | 47.34063 | 8.20978 | 10553 ft | 307 kts | 244° |
| 2026-04-26 12:20 | 47.33068 | 8.18067 | 10670 ft | 328 kts | 243° |
| 2026-04-26 12:20 | 47.32002 | 8.15012 | 10984 ft | 340 kts | 243° |
| 2026-04-26 12:20 | 47.30899 | 8.11897 | 11548 ft | 345 kts | 243° |
| 2026-04-26 12:20 | 47.29782 | 8.08765 | 12189 ft | 347 kts | 243° |
| 2026-04-26 12:21 | 47.28651 | 8.05596 | 12853 ft | 350 kts | 243° |
| 2026-04-26 12:21 | 47.27514 | 8.02414 | 13509 ft | 352 kts | 243° |
| 2026-04-26 12:21 | 47.27129 | 8.01335 | 13725 ft | 353 kts | 243° |
| 2026-04-26 12:21 | 47.26719 | 8.00078 | 13943 ft | 354 kts | 248° |
| 2026-04-26 12:22 | 47.25775 | 7.96672 | 14519 ft | 356 kts | 249° |
| 2026-04-26 12:22 | 47.24836 | 7.93289 | 15136 ft | 358 kts | 249° |
| 2026-04-26 12:22 | 47.23888 | 7.89904 | 15743 ft | 359 kts | 249° |
| 2026-04-26 12:22 | 47.22930 | 7.86494 | 16299 ft | 361 kts | 249° |
| 2026-04-26 12:23 | 47.21964 | 7.83067 | 16850 ft | 364 kts | 249° |
| 2026-04-26 12:23 | 47.20993 | 7.79630 | 17379 ft | 366 kts | 249° |
| 2026-04-26 12:23 | 47.20013 | 7.76164 | 17903 ft | 368 kts | 249° |
| 2026-04-26 12:23 | 47.18926 | 7.72737 | 18385 ft | 372 kts | 241° |
| 2026-04-26 12:24 | 47.17444 | 7.69608 | 18818 ft | 375 kts | 233° |
| 2026-04-26 12:24 | 47.15814 | 7.66595 | 19241 ft | 377 kts | 233° |
| 2026-04-26 12:24 | 47.14180 | 7.63576 | 19649 ft | 379 kts | 233° |
| 2026-04-26 12:25 | 47.10884 | 7.57481 | 20432 ft | 383 kts | 233° |
| 2026-04-26 12:25 | 47.09224 | 7.54416 | 20801 ft | 385 kts | 233° |
| 2026-04-26 12:25 | 47.07554 | 7.51338 | 21178 ft | 386 kts | 233° |
| 2026-04-26 12:25 | 47.05878 | 7.48252 | 21547 ft | 388 kts | 233° |
| 2026-04-26 12:26 | 47.04187 | 7.45147 | 21888 ft | 390 kts | 233° |
| 2026-04-26 12:26 | 47.02490 | 7.42031 | 22250 ft | 392 kts | 233° |
| 2026-04-26 12:26 | 47.00783 | 7.38901 | 22611 ft | 394 kts | 233° |
| 2026-04-26 12:26 | 46.99068 | 7.35759 | 22976 ft | 396 kts | 233° |
| 2026-04-26 12:27 | 46.97340 | 7.32603 | 23310 ft | 399 kts | 233° |
| 2026-04-26 12:27 | 46.95596 | 7.29432 | 23699 ft | 401 kts | 233° |
| 2026-04-26 12:27 | 46.93842 | 7.26246 | 24016 ft | 402 kts | 233° |
| 2026-04-26 12:27 | 46.92085 | 7.23043 | 24328 ft | 404 kts | 233° |
| 2026-04-26 12:28 | 46.90301 | 7.19788 | 24646 ft | 406 kts | 233° |
| 2026-04-26 12:28 | 46.89132 | 7.17654 | 24873 ft | 407 kts | 233° |
| 2026-04-26 12:28 | 46.87355 | 7.14412 | 25198 ft | 409 kts | 233° |
| 2026-04-26 12:28 | 46.85573 | 7.11168 | 25517 ft | 410 kts | 233° |
| 2026-04-26 12:29 | 46.83778 | 7.07908 | 25831 ft | 412 kts | 232° |
| 2026-04-26 12:29 | 46.81950 | 7.04597 | 26133 ft | 414 kts | 232° |
| 2026-04-26 12:29 | 46.78312 | 6.98024 | 26731 ft | 418 kts | 232° |
| 2026-04-26 12:30 | 46.76484 | 6.94724 | 27034 ft | 419 kts | 232° |
| 2026-04-26 12:30 | 46.74645 | 6.91409 | 27328 ft | 421 kts | 232° |
| 2026-04-26 12:30 | 46.72800 | 6.88080 | 27618 ft | 423 kts | 232° |
| 2026-04-26 12:31 | 46.69081 | 6.81386 | 28181 ft | 427 kts | 232° |
| 2026-04-26 12:31 | 46.67209 | 6.78029 | 28460 ft | 428 kts | 232° |
| 2026-04-26 12:31 | 46.65313 | 6.74660 | 28725 ft | 430 kts | 231° |
| 2026-04-26 12:31 | 46.63345 | 6.71382 | 28984 ft | 432 kts | 229° |
| 2026-04-26 12:32 | 46.61294 | 6.68166 | 29247 ft | 434 kts | 227° |
| 2026-04-26 12:32 | 46.59194 | 6.64986 | 29505 ft | 436 kts | 227° |
| 2026-04-26 12:32 | 46.55388 | 6.59264 | 29950 ft | 439 kts | 227° |
| 2026-04-26 12:33 | 46.53279 | 6.56059 | 30164 ft | 440 kts | 227° |
| 2026-04-26 12:33 | 46.51169 | 6.52821 | 30349 ft | 442 kts | 228° |
| 2026-04-26 12:33 | 46.49062 | 6.49565 | 30520 ft | 443 kts | 228° |
| 2026-04-26 12:33 | 46.46952 | 6.46290 | 30729 ft | 443 kts | 228° |
| 2026-04-26 12:34 | 46.44848 | 6.43025 | 31000 ft | 442 kts | 228° |
| 2026-04-26 12:34 | 46.42717 | 6.39731 | 31269 ft | 442 kts | 228° |
| 2026-04-26 12:34 | 46.40616 | 6.36497 | 31497 ft | 441 kts | 228° |
| 2026-04-26 12:34 | 46.38509 | 6.33266 | 31767 ft | 440 kts | 228° |
| 2026-04-26 12:35 | 46.36410 | 6.30056 | 32032 ft | 439 kts | 228° |
| 2026-04-26 12:35 | 46.34305 | 6.26841 | 32298 ft | 439 kts | 228° |
| 2026-04-26 12:35 | 46.32228 | 6.23670 | 32556 ft | 438 kts | 228° |
| 2026-04-26 12:35 | 46.30121 | 6.20454 | 32835 ft | 437 kts | 227° |
| 2026-04-26 12:36 | 46.27927 | 6.17411 | 33079 ft | 437 kts | 220° |
| 2026-04-26 12:36 | 46.25416 | 6.14925 | 33312 ft | 439 kts | 210° |
| 2026-04-26 12:36 | 46.22642 | 6.13086 | 33572 ft | 441 kts | 201° |
| 2026-04-26 12:36 | 46.19677 | 6.11941 | 33819 ft | 442 kts | 191° |
| 2026-04-26 12:37 | 46.16634 | 6.11255 | 34067 ft | 442 kts | 191° |
| 2026-04-26 12:37 | 46.13592 | 6.10581 | 34287 ft | 442 kts | 191° |
| 2026-04-26 12:37 | 46.10558 | 6.09913 | 34481 ft | 442 kts | 191° |
| 2026-04-26 12:37 | 46.07516 | 6.09245 | 34679 ft | 441 kts | 191° |
| 2026-04-26 12:38 | 46.04484 | 6.08578 | 34876 ft | 441 kts | 191° |
| 2026-04-26 12:38 | 46.01449 | 6.07907 | 35072 ft | 441 kts | 191° |
| 2026-04-26 12:38 | 45.98419 | 6.07238 | 35155 ft | 439 kts | 191° |
| 2026-04-26 12:39 | 45.92425 | 6.05918 | 35164 ft | 434 kts | 191° |
| 2026-04-26 12:39 | 45.86456 | 6.04601 | 35166 ft | 433 kts | 191° |
| 2026-04-26 12:40 | 45.80464 | 6.03283 | 35162 ft | 433 kts | 191° |
| 2026-04-26 12:40 | 45.74517 | 6.01957 | 35142 ft | 432 kts | 191° |
| 2026-04-26 12:41 | 45.68567 | 6.00637 | 35139 ft | 432 kts | 191° |
| 2026-04-26 12:41 | 45.62621 | 5.99338 | 35138 ft | 432 kts | 191° |
| 2026-04-26 12:42 | 45.56676 | 5.98038 | 35140 ft | 432 kts | 191° |
| 2026-04-26 12:42 | 45.50731 | 5.96734 | 35143 ft | 432 kts | 191° |
| 2026-04-26 12:43 | 45.44803 | 5.95320 | 35145 ft | 431 kts | 194° |
| 2026-04-26 12:43 | 45.38947 | 5.93485 | 35147 ft | 431 kts | 195° |
| 2026-04-26 12:44 | 45.33114 | 5.91533 | 35147 ft | 430 kts | 195° |
| 2026-04-26 12:44 | 45.27264 | 5.89650 | 35147 ft | 431 kts | 195° |
| 2026-04-26 12:45 | 45.21403 | 5.87838 | 35148 ft | 431 kts | 194° |
| 2026-04-26 12:45 | 45.15539 | 5.86043 | 35137 ft | 431 kts | 194° |
| 2026-04-26 12:46 | 45.09686 | 5.84237 | 35132 ft | 431 kts | 194° |
| 2026-04-26 12:46 | 45.03831 | 5.82433 | 35127 ft | 430 kts | 194° |
| 2026-04-26 12:47 | 44.97979 | 5.80626 | 35125 ft | 431 kts | 194° |
| 2026-04-26 12:47 | 44.92125 | 5.78822 | 35120 ft | 430 kts | 194° |
| 2026-04-26 12:48 | 44.86234 | 5.77013 | 35119 ft | 431 kts | 194° |
| 2026-04-26 12:48 | 44.80382 | 5.75224 | 35122 ft | 430 kts | 194° |
| 2026-04-26 12:49 | 44.74531 | 5.73436 | 35124 ft | 430 kts | 194° |
| 2026-04-26 12:49 | 44.68682 | 5.71653 | 35122 ft | 430 kts | 194° |
| 2026-04-26 12:50 | 44.62842 | 5.69878 | 35125 ft | 429 kts | 194° |
| 2026-04-26 12:50 | 44.57006 | 5.68100 | 35118 ft | 429 kts | 194° |
| 2026-04-26 12:51 | 44.51172 | 5.66325 | 35120 ft | 429 kts | 194° |
| 2026-04-26 12:51 | 44.45340 | 5.64554 | 35115 ft | 429 kts | 194° |
| 2026-04-26 12:52 | 44.39509 | 5.62795 | 35122 ft | 429 kts | 195° |
| 2026-04-26 12:52 | 44.33901 | 5.60103 | 35121 ft | 426 kts | 204° |
| 2026-04-26 12:53 | 44.28392 | 5.57079 | 35119 ft | 426 kts | 204° |
| 2026-04-26 12:53 | 44.22875 | 5.54069 | 35124 ft | 426 kts | 204° |
| 2026-04-26 12:54 | 44.17366 | 5.51065 | 35125 ft | 425 kts | 204° |
| 2026-04-26 12:54 | 44.11813 | 5.48036 | 35128 ft | 425 kts | 204° |
| 2026-04-26 12:55 | 44.06299 | 5.45037 | 35121 ft | 425 kts | 204° |
| 2026-04-26 12:55 | 44.00780 | 5.42044 | 35120 ft | 426 kts | 204° |
| 2026-04-26 12:56 | 43.95267 | 5.39055 | 35118 ft | 426 kts | 204° |
| 2026-04-26 12:56 | 43.89748 | 5.36066 | 35116 ft | 426 kts | 204° |
| 2026-04-26 12:57 | 43.84445 | 5.33205 | 35115 ft | 426 kts | 204° |
| 2026-04-26 12:57 | 43.78920 | 5.30226 | 35113 ft | 426 kts | 204° |
| 2026-04-26 12:58 | 43.70643 | 5.25771 | 35110 ft | 426 kts | 204° |
| 2026-04-26 12:58 | 43.65120 | 5.22808 | 35111 ft | 426 kts | 204° |
| 2026-04-26 12:59 | 43.59594 | 5.19854 | 35110 ft | 426 kts | 204° |
| 2026-04-26 12:59 | 43.54068 | 5.16899 | 35108 ft | 425 kts | 204° |
| 2026-04-26 13:00 | 43.49477 | 5.14448 | 35137 ft | 425 kts | 204° |
| 2026-04-26 13:00 | 43.43923 | 5.11497 | 35133 ft | 425 kts | 204° |
| 2026-04-26 13:01 | 43.38473 | 5.08389 | 35132 ft | 422 kts | 211° |
| 2026-04-26 13:01 | 43.33592 | 5.03950 | 35138 ft | 420 kts | 217° |
| 2026-04-26 13:02 | 43.28779 | 4.99398 | 35135 ft | 420 kts | 217° |
| 2026-04-26 13:02 | 43.23959 | 4.94856 | 35135 ft | 420 kts | 217° |
| 2026-04-26 13:03 | 43.19125 | 4.90330 | 35130 ft | 421 kts | 217° |
| 2026-04-26 13:03 | 43.14300 | 4.85810 | 35133 ft | 421 kts | 217° |
| 2026-04-26 13:04 | 43.09464 | 4.81278 | 35140 ft | 421 kts | 217° |
| 2026-04-26 13:04 | 43.04574 | 4.76886 | 35136 ft | 422 kts | 211° |
| 2026-04-26 13:05 | 42.99425 | 4.72991 | 35133 ft | 423 kts | 211° |
| 2026-04-26 13:05 | 42.94250 | 4.69066 | 35135 ft | 423 kts | 211° |
| 2026-04-26 13:06 | 42.89106 | 4.65173 | 35136 ft | 423 kts | 211° |
| 2026-04-26 13:06 | 42.83956 | 4.61283 | 35138 ft | 423 kts | 211° |
| 2026-04-26 13:07 | 42.78802 | 4.57408 | 35137 ft | 423 kts | 211° |
| 2026-04-26 13:07 | 42.73651 | 4.53545 | 35138 ft | 423 kts | 211° |
| 2026-04-26 13:08 | 42.68492 | 4.49666 | 35136 ft | 423 kts | 211° |
| 2026-04-26 13:08 | 42.63342 | 4.45789 | 35135 ft | 424 kts | 211° |
| 2026-04-26 13:09 | 42.58171 | 4.41927 | 35135 ft | 424 kts | 211° |
| 2026-04-26 13:09 | 42.53008 | 4.38073 | 35133 ft | 424 kts | 211° |
| 2026-04-26 13:10 | 42.47836 | 4.34217 | 35133 ft | 425 kts | 211° |
| 2026-04-26 13:10 | 42.42658 | 4.30364 | 35137 ft | 425 kts | 211° |
| 2026-04-26 13:11 | 42.37466 | 4.26516 | 35140 ft | 425 kts | 211° |
| 2026-04-26 13:11 | 42.32241 | 4.22648 | 35143 ft | 426 kts | 211° |
| 2026-04-26 13:12 | 42.27077 | 4.18830 | 35142 ft | 426 kts | 211° |
| 2026-04-26 13:12 | 42.21875 | 4.14990 | 35157 ft | 426 kts | 210° |
| 2026-04-26 13:13 | 42.16631 | 4.11130 | 35149 ft | 427 kts | 210° |
| 2026-04-26 13:13 | 42.11421 | 4.07297 | 35149 ft | 427 kts | 210° |
| 2026-04-26 13:14 | 42.06199 | 4.03457 | 35150 ft | 428 kts | 210° |
| 2026-04-26 13:14 | 42.00974 | 3.99627 | 35152 ft | 428 kts | 210° |
| 2026-04-26 13:15 | 41.95740 | 3.95802 | 35150 ft | 428 kts | 210° |
| 2026-04-26 13:15 | 41.90193 | 3.92863 | 35143 ft | 432 kts | 193° |
| 2026-04-26 13:16 | 41.84221 | 3.91485 | 35156 ft | 433 kts | 191° |
| 2026-04-26 13:16 | 41.78276 | 3.90107 | 35151 ft | 434 kts | 191° |
| 2026-04-26 13:17 | 41.69353 | 3.88040 | 35158 ft | 434 kts | 191° |
| 2026-04-26 13:18 | 41.60401 | 3.85995 | 35169 ft | 435 kts | 191° |
| 2026-04-26 13:19 | 41.51452 | 3.83943 | 35170 ft | 435 kts | 191° |
| 2026-04-26 13:19 | 41.45482 | 3.82573 | 35175 ft | 435 kts | 191° |
| 2026-04-26 13:20 | 41.39511 | 3.81207 | 35176 ft | 435 kts | 191° |
| 2026-04-26 13:20 | 41.33546 | 3.79836 | 35181 ft | 435 kts | 191° |
| 2026-04-26 13:21 | 41.27579 | 3.78480 | 35181 ft | 435 kts | 191° |
| 2026-04-26 13:21 | 41.21610 | 3.77123 | 35182 ft | 435 kts | 191° |
| 2026-04-26 13:22 | 41.15658 | 3.75700 | 35183 ft | 434 kts | 195° |
| 2026-04-26 13:22 | 41.09999 | 3.72966 | 35185 ft | 433 kts | 202° |
| 2026-04-26 13:23 | 41.04387 | 3.70062 | 35180 ft | 433 kts | 202° |
| 2026-04-26 13:23 | 41.01582 | 3.68622 | 34837 ft | 432 kts | 202° |
| 2026-04-26 13:23 | 40.98778 | 3.67185 | 34144 ft | 433 kts | 201° |
| 2026-04-26 13:23 | 40.95967 | 3.65745 | 33335 ft | 435 kts | 201° |
| 2026-04-26 13:24 | 40.93143 | 3.64300 | 32678 ft | 433 kts | 201° |
| 2026-04-26 13:24 | 40.90349 | 3.62870 | 32120 ft | 430 kts | 201° |
| 2026-04-26 13:24 | 40.87564 | 3.61439 | 31566 ft | 427 kts | 201° |
| 2026-04-26 13:24 | 40.84810 | 3.60020 | 31020 ft | 424 kts | 201° |
| 2026-04-26 13:25 | 40.82071 | 3.58609 | 30477 ft | 421 kts | 201° |
| 2026-04-26 13:25 | 40.79351 | 3.57213 | 29889 ft | 418 kts | 201° |
| 2026-04-26 13:25 | 40.76620 | 3.55815 | 29283 ft | 415 kts | 201° |
| 2026-04-26 13:25 | 40.73938 | 3.54449 | 28685 ft | 411 kts | 201° |
| 2026-04-26 13:26 | 40.71276 | 3.53098 | 28118 ft | 408 kts | 201° |
| 2026-04-26 13:26 | 40.68636 | 3.51761 | 27548 ft | 405 kts | 201° |
| 2026-04-26 13:26 | 40.66016 | 3.50431 | 26978 ft | 402 kts | 201° |
| 2026-04-26 13:26 | 40.63423 | 3.49113 | 26405 ft | 398 kts | 201° |
| 2026-04-26 13:27 | 40.60848 | 3.47802 | 25838 ft | 395 kts | 201° |
| 2026-04-26 13:27 | 40.58297 | 3.46503 | 25278 ft | 392 kts | 201° |
| 2026-04-26 13:27 | 40.55757 | 3.45214 | 24722 ft | 389 kts | 201° |
| 2026-04-26 13:27 | 40.53243 | 3.43941 | 24189 ft | 386 kts | 201° |
| 2026-04-26 13:28 | 40.50741 | 3.42674 | 23652 ft | 384 kts | 200° |
| 2026-04-26 13:28 | 40.48262 | 3.41419 | 23054 ft | 381 kts | 200° |
| 2026-04-26 13:28 | 40.45790 | 3.40211 | 22487 ft | 377 kts | 196° |
| 2026-04-26 13:28 | 40.43240 | 3.39504 | 21944 ft | 373 kts | 185° |
| 2026-04-26 13:29 | 40.40657 | 3.39418 | 21407 ft | 369 kts | 176° |
| 2026-04-26 13:29 | 40.38962 | 3.39522 | 21048 ft | 368 kts | 176° |
| 2026-04-26 13:29 | 40.35561 | 3.39724 | 20367 ft | 364 kts | 177° |
| 2026-04-26 13:29 | 40.33043 | 3.39866 | 19873 ft | 362 kts | 177° |
| 2026-04-26 13:30 | 40.30536 | 3.40006 | 19393 ft | 359 kts | 177° |
| 2026-04-26 13:30 | 40.28042 | 3.40148 | 18921 ft | 357 kts | 176° |
| 2026-04-26 13:30 | 40.25575 | 3.40289 | 18461 ft | 354 kts | 176° |
| 2026-04-26 13:30 | 40.23116 | 3.40430 | 17934 ft | 352 kts | 176° |
| 2026-04-26 13:31 | 40.20677 | 3.40571 | 17431 ft | 349 kts | 176° |
| 2026-04-26 13:31 | 40.18257 | 3.40711 | 16936 ft | 347 kts | 176° |
| 2026-04-26 13:31 | 40.15854 | 3.40850 | 16451 ft | 345 kts | 176° |
| 2026-04-26 13:31 | 40.13462 | 3.40986 | 15983 ft | 343 kts | 176° |
| 2026-04-26 13:32 | 40.11854 | 3.41077 | 15665 ft | 341 kts | 176° |
| 2026-04-26 13:32 | 40.09494 | 3.41210 | 15207 ft | 339 kts | 176° |
| 2026-04-26 13:32 | 40.07149 | 3.41342 | 14880 ft | 333 kts | 176° |
| 2026-04-26 13:32 | 40.04895 | 3.41470 | 14609 ft | 319 kts | 176° |
| 2026-04-26 13:33 | 40.02694 | 3.41594 | 14116 ft | 314 kts | 176° |
| 2026-04-26 13:33 | 40.00529 | 3.41714 | 13580 ft | 310 kts | 176° |
| 2026-04-26 13:33 | 39.98382 | 3.41830 | 13014 ft | 307 kts | 176° |
| 2026-04-26 13:33 | 39.96253 | 3.41946 | 12376 ft | 306 kts | 176° |
| 2026-04-26 13:34 | 39.94133 | 3.42066 | 11750 ft | 305 kts | 176° |
| 2026-04-26 13:34 | 39.92017 | 3.42188 | 11135 ft | 303 kts | 176° |
| 2026-04-26 13:34 | 39.89926 | 3.42308 | 10533 ft | 298 kts | 176° |
| 2026-04-26 13:34 | 39.88563 | 3.42384 | 10139 ft | 294 kts | 177° |
| 2026-04-26 13:35 | 39.85850 | 3.42534 | 9272 ft | 289 kts | 176° |
| 2026-04-26 13:35 | 39.83858 | 3.42646 | 8694 ft | 283 kts | 176° |
| 2026-04-26 13:35 | 39.81885 | 3.42758 | 8496 ft | 285 kts | 176° |
| 2026-04-26 13:35 | 39.79906 | 3.42872 | 8299 ft | 285 kts | 176° |
| 2026-04-26 13:36 | 39.77930 | 3.42985 | 8128 ft | 283 kts | 176° |
| 2026-04-26 13:36 | 39.75962 | 3.43097 | 8166 ft | 283 kts | 176° |
| 2026-04-26 13:36 | 39.73993 | 3.43110 | 8166 ft | 284 kts | 187° |
| 2026-04-26 13:36 | 39.72186 | 3.42290 | 8166 ft | 270 kts | 212° |
| 2026-04-26 13:37 | 39.70833 | 3.40656 | 8176 ft | 267 kts | 235° |
| 2026-04-26 13:37 | 39.70079 | 3.38480 | 8171 ft | 264 kts | 258° |
| 2026-04-26 13:37 | 39.69978 | 3.36129 | 7915 ft | 260 kts | 273° |
| 2026-04-26 13:37 | 39.70064 | 3.33788 | 7635 ft | 258 kts | 273° |
| 2026-04-26 13:38 | 39.70147 | 3.31482 | 7440 ft | 251 kts | 273° |
| 2026-04-26 13:38 | 39.70224 | 3.29247 | 7132 ft | 247 kts | 272° |
| 2026-04-26 13:38 | 39.70296 | 3.27023 | 6791 ft | 246 kts | 272° |
| 2026-04-26 13:38 | 39.70366 | 3.24820 | 6526 ft | 242 kts | 272° |
| 2026-04-26 13:39 | 39.70434 | 3.22626 | 6203 ft | 239 kts | 272° |
| 2026-04-26 13:39 | 39.70507 | 3.20509 | 6004 ft | 234 kts | 276° |
| 2026-04-26 13:39 | 39.71018 | 3.18543 | 5754 ft | 226 kts | 306° |
| 2026-04-26 13:39 | 39.72034 | 3.17008 | 5433 ft | 224 kts | 316° |
| 2026-04-26 13:40 | 39.73132 | 3.15586 | 5112 ft | 223 kts | 317° |
| 2026-04-26 13:40 | 39.74234 | 3.14181 | 5037 ft | 223 kts | 315° |
| 2026-04-26 13:40 | 39.74975 | 3.12430 | 5034 ft | 225 kts | 280° |
| 2026-04-26 13:40 | 39.74769 | 3.10447 | 5045 ft | 224 kts | 245° |
| 2026-04-26 13:41 | 39.73874 | 3.08816 | 5046 ft | 223 kts | 226° |
| 2026-04-26 13:41 | 39.72836 | 3.07322 | 5036 ft | 223 kts | 226° |
| 2026-04-26 13:41 | 39.71799 | 3.05834 | 5038 ft | 222 kts | 226° |
| 2026-04-26 13:41 | 39.70759 | 3.04343 | 4831 ft | 222 kts | 226° |
| 2026-04-26 13:42 | 39.69729 | 3.02867 | 4497 ft | 220 kts | 226° |
| 2026-04-26 13:42 | 39.68703 | 3.01398 | 4166 ft | 219 kts | 226° |
| 2026-04-26 13:42 | 39.67683 | 2.99942 | 3838 ft | 217 kts | 226° |
| 2026-04-26 13:42 | 39.66677 | 2.98509 | 3527 ft | 212 kts | 226° |
| 2026-04-26 13:43 | 39.65699 | 2.97111 | 3194 ft | 206 kts | 227° |
| 2026-04-26 13:43 | 39.64798 | 2.95669 | 3032 ft | 201 kts | 233° |
| 2026-04-26 13:43 | 39.64052 | 2.94210 | 3029 ft | 189 kts | 237° |
| 2026-04-26 13:43 | 39.63371 | 2.92787 | 2908 ft | 183 kts | 237° |
| 2026-04-26 13:44 | 39.62710 | 2.91386 | 2697 ft | 181 kts | 237° |
| 2026-04-26 13:44 | 39.62081 | 2.90045 | 2519 ft | 166 kts | 237° |
| 2026-04-26 13:44 | 39.61490 | 2.88786 | 2316 ft | 165 kts | 237° |
| 2026-04-26 13:44 | 39.60885 | 2.87515 | 2132 ft | 166 kts | 236° |
| 2026-04-26 13:45 | 39.60289 | 2.86228 | 1858 ft | 164 kts | 238° |
| 2026-04-26 13:45 | 39.59703 | 2.84977 | 1592 ft | 159 kts | 237° |
| 2026-04-26 13:45 | 39.59137 | 2.83773 | 1341 ft | 155 kts | 237° |
| 2026-04-26 13:45 | 39.58577 | 2.82574 | 1158 ft | 156 kts | 238° |
| 2026-04-26 13:46 | 39.58015 | 2.81384 | 942 ft | 151 kts | 235° |
| 2026-04-26 13:46 | 39.57476 | 2.80262 | 769 ft | 143 kts | 237° |
| 2026-04-26 13:46 | 39.56953 | 2.79159 | 540 ft | 141 kts | 237° |
| 2026-04-26 13:46 | 39.56465 | 2.78110 | 384 ft | 133 kts | 236° |
| 2026-04-26 13:47 | 39.55984 | 2.77108 | 216 ft | 129 kts | 238° |
| 2026-04-26 13:47 | 39.55524 | 2.76124 | 59 ft | 127 kts | 237° |
| 2026-04-26 13:47 | 39.55096 | 2.75226 | 31 ft | 98 kts | 238° |
| 2026-04-26 13:47 | 39.54838 | 2.74679 | 30 ft | 46 kts | 239° |
| 2026-04-26 13:48 | 39.54725 | 2.74439 | 30 ft | 27 kts | 238° |
| 2026-04-26 13:48 | 39.54636 | 2.74255 | 30 ft | 17 kts | 239° |
| 2026-04-26 13:48 | 39.54587 | 2.74124 | 30 ft | 16 kts | 244° |
| 2026-04-26 13:48 | 39.54556 | 2.73995 | 30 ft | 15 kts | 261° |
| 2026-04-26 13:49 | 39.54549 | 2.73868 | 30 ft | 14 kts | 268° |
| 2026-04-26 13:49 | 39.54556 | 2.73753 | 30 ft | 10 kts | 309° |
| 2026-04-26 13:49 | 39.54606 | 2.73752 | 30 ft | 7 kts | 24° |
| 2026-04-26 13:49 | 39.54642 | 2.73806 | 30 ft | 12 kts | 58° |
| 2026-04-26 13:50 | 39.54691 | 2.73916 | 30 ft | 14 kts | 58° |
| 2026-04-26 13:50 | 39.54770 | 2.73951 | 30 ft | 12 kts | 13° |
| 2026-04-26 13:50 | 39.54830 | 2.74003 | 30 ft | 10 kts | 21° |
| 2026-04-26 13:50 | 39.54885 | 2.73974 | 30 ft | 8 kts | 328° |
| 2026-04-26 13:51 | 39.54946 | 2.73924 | 30 ft | 11 kts | 328° |
| 2026-04-26 13:51 | 39.55011 | 2.73875 | 30 ft | 10 kts | 329° |
| 2026-04-26 13:51 | 39.55044 | 2.73828 | 30 ft | 5 kts | 271° |
| 2026-04-26 13:51 | 39.55032 | 2.73788 | 30 ft | 5 kts | 239° |
| 2026-04-26 13:52 | 39.55015 | 2.73751 | 30 ft | 5 kts | 239° |
| 2026-04-26 13:52 | 39.55006 | 2.73731 | 30 ft | 1 kts | 238° |
| 2026-04-26 13:52 | 39.55005 | 2.73729 | 30 ft | 0 kts | 238° |